Time;durP1;ratioP1;P1;durP2;ratioP2;P2;SDS_P1;SDS_P2;PMS_P1;PMS_P2;Temp;Humidity;BMP_temperature;BMP_pressure;BME280_temperature;BME280_humidity;BME280_pressure;Samples;Min_cycle;Max_cycle;Signal;HPM_P1;HPM_P2
2023/08/04 00:00:14;;;;;;;2.10;1.45;;;;;;;15.74;86.02;98889.91;5066370;28;20031;-60
2023/08/04 00:02:40;;;;;;;3.78;2.28;;;;;;;15.78;85.53;98896.66;5066381;28;20032;-60
2023/08/04 00:05:07;;;;;;;6.30;2.45;;;;;;;15.69;85.85;98882.31;5066469;28;20028;-62
2023/08/04 00:07:36;;;;;;;6.40;2.30;;;;;;;15.78;86.26;98898.44;5065935;28;20021;-60
2023/08/04 00:10:05;;;;;;;5.03;3.15;;;;;;;15.77;86.80;98897.56;5066420;28;20032;-60
2023/08/04 00:12:31;;;;;;;5.57;2.67;;;;;;;15.82;86.89;98892.94;5066484;28;20076;-61
2023/08/04 00:14:56;;;;;;;6.00;2.33;;;;;;;15.83;86.60;98892.00;5066213;28;20043;-60
2023/08/04 00:17:22;;;;;;;4.65;2.75;;;;;;;15.80;87.35;98899.19;5065107;28;20082;-61
2023/08/04 00:19:48;;;;;;;3.40;2.17;;;;;;;15.83;87.28;98899.84;5066305;28;20350;-60
2023/08/04 00:22:13;;;;;;;9.15;3.20;;;;;;;15.86;87.21;98904.91;5066297;28;20025;-60
2023/08/04 00:24:38;;;;;;;6.20;2.80;;;;;;;15.89;87.26;98901.31;5066033;28;20025;-61
2023/08/04 00:27:04;;;;;;;4.22;2.28;;;;;;;15.88;87.59;98902.22;5065527;28;20044;-60
2023/08/04 00:29:29;;;;;;;4.75;2.80;;;;;;;15.90;88.24;98900.38;5066255;28;20017;-60
2023/08/04 00:31:55;;;;;;;15.82;4.03;;;;;;;15.89;89.17;98908.31;5066013;28;20074;-60
2023/08/04 00:34:21;;;;;;;3.72;2.67;;;;;;;15.93;90.19;98909.81;5065842;28;20028;-62
2023/08/04 00:36:47;;;;;;;3.80;2.95;;;;;;;15.92;90.53;98916.84;5065701;28;20024;-61
2023/08/04 00:39:15;;;;;;;9.90;2.95;;;;;;;15.93;91.03;98905.44;5065770;28;20108;-60
2023/08/04 00:41:42;;;;;;;6.15;3.70;;;;;;;15.97;90.53;98911.34;5065881;28;20081;-60
2023/08/04 00:44:07;;;;;;;11.05;3.38;;;;;;;15.95;90.62;98911.44;5065344;28;20347;-60
2023/08/04 00:46:34;;;;;;;8.07;3.05;;;;;;;16.00;91.01;98912.97;5065418;28;20033;-59
2023/08/04 00:49:00;;;;;;;8.25;3.08;;;;;;;16.03;91.08;98913.66;5065699;28;20020;-60
2023/08/04 00:51:26;;;;;;;5.05;2.90;;;;;;;16.03;90.79;98916.28;5065731;28;20021;-60
2023/08/04 00:53:52;;;;;;;4.85;2.95;;;;;;;16.01;90.81;98912.91;5065224;28;20025;-60
2023/08/04 00:56:18;;;;;;;12.18;2.92;;;;;;;16.04;90.62;98914.53;5065498;28;20036;-60
2023/08/04 00:58:44;;;;;;;11.65;3.05;;;;;;;16.01;90.74;98910.28;5065600;28;20077;-60
2023/08/04 01:01:10;;;;;;;5.60;2.80;;;;;;;16.04;90.44;98922.38;5065666;28;20082;-60
2023/08/04 01:03:38;;;;;;;9.18;2.67;;;;;;;16.01;90.88;98920.75;5065660;28;20067;-60
2023/08/04 01:06:19;;;;;;;6.60;2.47;;;;;;;16.01;91.61;98920.75;5065217;28;20033;-60
2023/08/04 01:09:31;;;;;;;8.73;3.10;;;;;;;16.03;92.71;98926.75;5065177;28;20100;-59
2023/08/04 01:12:14;;;;;;;6.65;2.95;;;;;;;16.03;93.11;98925.91;5035434;28;20056;-60
2023/08/04 01:14:42;;;;;;;10.27;2.92;;;;;;;16.06;92.82;98923.97;5065118;28;20033;-60
2023/08/04 01:17:30;;;;;;;7.72;3.03;;;;;;;16.09;94.00;98926.41;5065310;28;20021;-61
2023/08/04 01:19:57;;;;;;;11.50;3.17;;;;;;;16.13;94.54;98929.72;5065303;28;20052;-60
2023/08/04 01:22:24;;;;;;;4.20;2.28;;;;;;;16.16;94.81;98931.31;5065167;28;20162;-61
2023/08/04 01:24:51;;;;;;;11.70;2.72;;;;;;;16.18;94.91;98925.03;5064931;28;20017;-60
2023/08/04 01:27:22;;;;;;;12.95;3.83;;;;;;;16.23;94.70;98935.25;5065248;28;20033;-60
2023/08/04 01:29:49;;;;;;;9.52;2.65;;;;;;;16.25;94.55;98935.16;5064785;28;20108;-60
2023/08/04 01:32:15;;;;;;;11.52;2.58;;;;;;;16.28;94.63;98935.84;5065282;28;20040;-61
2023/08/04 01:34:47;;;;;;;13.65;2.85;;;;;;;16.31;94.42;98933.06;5065138;28;20029;-61
2023/08/04 01:37:13;;;;;;;9.00;2.58;;;;;;;16.31;94.67;98930.44;5064916;28;20049;-61
2023/08/04 01:39:40;;;;;;;5.90;3.25;;;;;;;16.33;95.41;98939.06;5063693;28;20064;-60
2023/08/04 01:42:05;;;;;;;6.50;2.25;;;;;;;16.31;95.31;98938.28;5065035;28;20036;-60
2023/08/04 01:44:31;;;;;;;9.63;3.05;;;;;;;16.35;95.49;98938.97;5064667;28;20013;-60
2023/08/04 01:46:56;;;;;;;5.10;2.80;;;;;;;16.35;95.46;98941.59;5064823;28;20031;-60
2023/08/04 01:49:22;;;;;;;9.65;2.65;;;;;;;16.36;95.44;98938.03;5064933;28;20084;-61
2023/08/04 01:51:47;;;;;;;5.45;3.15;;;;;;;16.38;95.74;98948.41;5063498;28;20040;-60
2023/08/04 01:54:12;;;;;;;7.30;3.47;;;;;;;16.38;95.74;98941.41;5064831;28;20025;-61
2023/08/04 01:56:38;;;;;;;6.00;2.35;;;;;;;16.40;95.87;98944.81;5064677;28;20071;-60
2023/08/04 01:59:03;;;;;;;10.02;3.30;;;;;;;16.42;96.17;98947.34;5064869;28;20036;-60
2023/08/04 02:01:28;;;;;;;4.88;2.22;;;;;;;16.45;96.66;98952.41;5064893;28;20484;-60
2023/08/04 02:03:54;;;;;;;5.00;2.70;;;;;;;16.47;96.55;98954.00;5064819;28;20025;-60
2023/08/04 02:06:19;;;;;;;5.30;2.08;;;;;;;16.46;96.79;98954.94;5064470;28;20044;-60
2023/08/04 02:08:45;;;;;;;11.32;2.30;;;;;;;16.51;97.37;98952.06;5064346;28;20021;-60
2023/08/04 02:11:10;;;;;;;8.27;3.25;;;;;;;16.53;97.10;98957.22;5064768;28;20067;-60
2023/08/04 02:13:35;;;;;;;6.90;2.95;;;;;;;16.54;97.00;98951.88;5064664;28;20025;-60
2023/08/04 02:16:01;;;;;;;9.23;2.83;;;;;;;16.30;97.50;98918.28;5064637;28;20051;-60
2023/08/04 02:18:26;;;;;;;10.40;2.58;;;;;;;16.54;97.57;98962.34;5064407;28;20057;-60
2023/08/04 02:20:51;;;;;;;8.73;3.38;;;;;;;16.62;97.28;98963.69;5063285;28;20067;-61
2023/08/04 02:23:17;;;;;;;4.28;2.15;;;;;;;16.59;97.63;98962.94;5064842;28;20048;-60
2023/08/04 02:25:42;;;;;;;8.75;2.72;;;;;;;16.61;97.51;98968.09;5064556;28;20078;-60
2023/08/04 02:28:07;;;;;;;4.88;3.17;;;;;;;16.60;97.39;98964.63;5064447;28;20032;-61
2023/08/04 02:30:33;;;;;;;9.90;2.80;;;;;;;16.62;97.71;98969.78;5063263;28;20025;-61
2023/08/04 02:32:58;;;;;;;8.02;3.58;;;;;;;16.65;97.67;98966.13;5064749;28;20025;-60
2023/08/04 02:35:24;;;;;;;11.48;3.90;;;;;;;16.66;97.45;98968.66;5064351;28;20080;-61
2023/08/04 02:37:49;;;;;;;7.30;2.38;;;;;;;16.65;97.48;98966.97;5062952;28;20045;-61
2023/08/04 02:40:15;;;;;;;7.43;3.00;;;;;;;16.65;97.40;98961.75;5064150;28;20044;-60
2023/08/04 02:42:40;;;;;;;5.50;2.47;;;;;;;16.67;97.58;98966.91;5067946;28;20021;-61
2023/08/04 02:45:06;;;;;;;8.60;3.38;;;;;;;16.65;97.10;98968.75;5068265;28;20408;-60
2023/08/04 02:47:31;;;;;;;10.85;2.97;;;;;;;16.72;97.24;98970.94;5068211;28;20020;-60
2023/08/04 02:49:57;;;;;;;17.98;3.75;;;;;;;16.75;97.12;98974.31;5068203;28;20055;-60
2023/08/04 02:52:22;;;;;;;12.68;2.80;;;;;;;16.75;97.16;98983.03;5068188;28;20025;-60
2023/08/04 02:54:48;;;;;;;6.15;2.22;;;;;;;16.65;96.64;98953.03;5067729;28;20021;-60
2023/08/04 02:57:13;;;;;;;5.80;2.80;;;;;;;16.80;96.70;98983.63;5067732;28;20037;-60
2023/08/04 02:59:39;;;;;;;3.13;2.33;;;;;;;16.78;96.51;98982.84;5067950;28;20512;-61
2023/08/04 03:02:04;;;;;;;7.18;2.13;;;;;;;16.80;96.43;98988.00;5068065;28;20092;-61
2023/08/04 03:04:30;;;;;;;5.38;3.13;;;;;;;16.80;96.80;98988.84;5067869;28;20020;-61
2023/08/04 03:06:55;;;;;;;9.45;2.42;;;;;;;16.81;96.30;98987.91;5067692;28;20021;-61
2023/08/04 03:09:20;;;;;;;7.60;2.97;;;;;;;16.83;96.27;98993.91;5067501;28;20028;-61
2023/08/04 03:11:46;;;;;;;7.93;2.90;;;;;;;16.83;96.31;98993.91;5067696;28;20025;-61
2023/08/04 03:14:11;;;;;;;9.57;3.88;;;;;;;16.82;96.37;98992.22;5067725;28;20021;-60
2023/08/04 03:16:37;;;;;;;7.05;2.33;;;;;;;16.81;96.54;98987.91;5066449;28;20063;-60
2023/08/04 03:19:02;;;;;;;13.32;3.55;;;;;;;16.81;96.11;98987.06;5067596;28;20021;-60
2023/08/04 03:21:27;;;;;;;11.40;3.45;;;;;;;16.84;95.99;98986.88;5067587;28;20046;-61
2023/08/04 03:23:53;;;;;;;16.30;3.10;;;;;;;16.83;95.96;98993.91;5067234;28;20378;-61
2023/08/04 03:26:18;;;;;;;16.42;3.05;;;;;;;16.80;96.26;98993.25;5067746;28;20461;-61
2023/08/04 03:28:44;;;;;;;14.85;4.20;;;;;;;16.82;96.26;98994.84;5065669;28;20044;-61
2023/08/04 03:31:09;;;;;;;17.23;3.42;;;;;;;16.78;96.34;98990.72;5066966;28;20093;-61
2023/08/04 03:33:35;;;;;;;15.68;4.90;;;;;;;16.78;96.45;98995.94;5066975;28;20047;-61
2023/08/04 03:36:00;;;;;;;8.45;2.85;;;;;;;16.81;96.47;98989.69;5067110;28;20025;-61
2023/08/04 03:38:26;;;;;;;6.55;3.00;;;;;;;16.83;96.48;98998.31;5066511;28;20052;-60
2023/08/04 03:40:51;;;;;;;13.40;3.50;;;;;;;16.85;96.44;98997.28;5066737;28;20021;-60
2023/08/04 03:43:16;;;;;;;9.50;3.10;;;;;;;16.85;96.32;98997.28;5066808;28;20477;-60
2023/08/04 03:45:42;;;;;;;17.67;3.67;;;;;;;16.83;96.20;99001.78;5066828;28;20017;-61
2023/08/04 03:48:07;;;;;;;10.90;3.38;;;;;;;16.84;95.98;99000.00;5066953;28;20059;-60
2023/08/04 03:50:33;;;;;;;7.90;2.67;;;;;;;16.89;95.92;99015.44;5066714;28;20048;-61
2023/08/04 03:52:58;;;;;;;11.18;4.63;;;;;;;16.88;96.16;99005.91;5066392;28;20021;-61
2023/08/04 03:55:25;;;;;;;18.83;4.82;;;;;;;16.88;96.21;99005.91;5066421;28;20059;-60
2023/08/04 03:57:50;;;;;;;6.10;2.88;;;;;;;16.89;95.96;99002.34;5066931;28;20381;-61
2023/08/04 04:00:16;;;;;;;10.95;3.15;;;;;;;16.93;95.94;98993.38;5066838;28;20465;-61
2023/08/04 04:02:41;;;;;;;11.50;3.33;;;;;;;16.94;95.54;99001.16;5066953;28;20032;-61
2023/08/04 04:05:07;;;;;;;8.48;2.25;;;;;;;16.96;95.59;99006.31;5066661;28;20059;-61
2023/08/04 04:07:32;;;;;;;14.10;3.05;;;;;;;16.94;95.56;98998.53;5066665;28;20084;-60
2023/08/04 04:09:58;;;;;;;11.85;2.85;;;;;;;16.97;95.82;99005.38;5066352;28;20032;-59
2023/08/04 04:12:23;;;;;;;8.85;2.80;;;;;;;16.95;95.54;99005.47;5065333;28;20029;-60
2023/08/04 04:14:48;;;;;;;10.88;3.25;;;;;;;16.99;95.19;99014.00;5066591;28;20024;-61
2023/08/04 04:17:14;;;;;;;5.63;3.30;;;;;;;17.04;95.57;99008.50;5066699;28;20384;-60
2023/08/04 04:19:40;;;;;;;19.92;3.28;;;;;;;17.03;95.32;99017.31;5066477;28;20032;-61
2023/08/04 04:22:06;;;;;;;8.68;3.53;;;;;;;17.06;95.06;99015.31;5066802;28;20021;-61
2023/08/04 04:24:32;;;;;;;8.68;3.85;;;;;;;17.10;95.28;99018.66;5066601;28;20058;-60
2023/08/04 04:26:57;;;;;;;7.40;3.28;;;;;;;17.13;95.22;99015.00;5066506;28;20024;-61
2023/08/04 04:29:22;;;;;;;5.50;2.78;;;;;;;17.18;95.17;99015.56;5066577;28;20222;-61
2023/08/04 04:31:48;;;;;;;9.13;2.65;;;;;;;17.21;94.78;99016.25;5066426;28;20089;-59
2023/08/04 04:34:13;;;;;;;8.15;2.40;;;;;;;17.26;94.71;99021.22;5066433;28;20024;-61
2023/08/04 04:36:39;;;;;;;12.13;3.33;;;;;;;17.26;94.62;99021.22;5066214;28;20076;-60
2023/08/04 04:39:04;;;;;;;13.65;3.70;;;;;;;17.17;94.35;99008.66;5065845;28;20045;-60
2023/08/04 04:41:30;;;;;;;16.10;3.40;;;;;;;17.27;93.90;99028.16;5066531;28;20028;-61
2023/08/04 04:43:56;;;;;;;13.35;2.45;;;;;;;17.25;93.64;99027.41;5066061;28;20032;-62
2023/08/04 04:46:21;;;;;;;9.57;2.80;;;;;;;17.29;94.02;99031.53;5066189;28;20102;-61
2023/08/04 04:48:47;;;;;;;10.65;3.45;;;;;;;17.35;93.77;99038.19;5066255;28;20044;-61
2023/08/04 04:51:12;;;;;;;5.13;2.55;;;;;;;17.40;93.74;99037.91;5066019;28;20454;-61
2023/08/04 04:53:38;;;;;;;10.13;3.38;;;;;;;17.42;93.45;99046.53;5066166;28;20081;-61
2023/08/04 04:56:03;;;;;;;6.18;2.83;;;;;;;17.44;93.43;99042.88;5065844;28;20025;-61
2023/08/04 04:58:29;;;;;;;10.27;3.42;;;;;;;17.47;93.25;99044.50;5065884;28;20382;-61
2023/08/04 05:01:03;;;;;;;7.90;3.55;;;;;;;17.46;92.72;99055.91;5065781;28;20017;-60
2023/08/04 05:03:28;;;;;;;5.18;2.92;;;;;;;17.52;92.68;99057.34;5065451;28;20025;-61
2023/08/04 05:05:54;;;;;;;10.90;3.92;;;;;;;17.61;92.70;99051.53;5065801;28;20028;-61
2023/08/04 05:08:19;;;;;;;10.10;3.10;;;;;;;17.69;92.78;99051.94;5065873;28;20553;-61
2023/08/04 05:10:49;;;;;;;7.32;3.28;;;;;;;17.76;92.77;99062.91;5065624;28;20046;-61
2023/08/04 05:13:15;;;;;;;11.25;3.20;;;;;;;17.81;92.22;99058.22;5065724;28;20044;-61
2023/08/04 05:15:40;;;;;;;14.60;3.90;;;;;;;17.83;92.23;99060.75;5065787;28;20025;-60
2023/08/04 05:18:05;;;;;;;7.35;2.58;;;;;;;17.83;91.63;99069.47;5065559;28;20041;-61
2023/08/04 05:20:31;;;;;;;5.65;2.65;;;;;;;17.89;91.78;99064.78;5064192;28;20083;-59
2023/08/04 05:22:56;;;;;;;9.85;2.58;;;;;;;17.97;91.61;99070.44;5065539;28;20379;-61
2023/08/04 05:25:22;;;;;;;6.72;2.90;;;;;;;17.96;91.57;99066.09;5065378;28;20024;-60
2023/08/04 05:27:50;;;;;;;15.52;3.70;;;;;;;17.98;90.93;99072.09;5065576;28;20040;-61
2023/08/04 05:30:15;;;;;;;8.70;3.45;;;;;;;17.98;91.01;99081.75;5065442;28;20025;-60
2023/08/04 05:32:41;;;;;;;12.00;3.60;;;;;;;18.05;90.48;99089.16;5065404;28;20086;-60
2023/08/04 05:35:06;;;;;;;8.38;3.20;;;;;;;18.04;90.41;99081.38;5065210;28;20025;-61
2023/08/04 05:37:33;;;;;;;10.10;2.80;;;;;;;18.08;89.86;99088.16;5065166;28;20041;-60
2023/08/04 05:39:58;;;;;;;9.93;2.92;;;;;;;18.11;89.36;99092.38;5065034;28;20530;-61
2023/08/04 05:42:24;;;;;;;5.82;2.60;;;;;;;18.13;89.54;99090.53;5065405;28;20040;-60
2023/08/04 05:44:49;;;;;;;6.20;2.58;;;;;;;18.17;90.10;99090.25;5065204;28;20020;-60
2023/08/04 05:47:15;;;;;;;16.20;3.72;;;;;;;18.17;89.19;99097.28;5065069;28;20021;-60
2023/08/04 05:49:40;;;;;;;9.65;3.53;;;;;;;18.04;88.54;99081.38;5065273;28;20073;-61
2023/08/04 05:52:06;;;;;;;7.97;3.25;;;;;;;18.14;88.72;99093.06;5065178;28;20052;-61
2023/08/04 05:54:31;;;;;;;8.27;2.60;;;;;;;18.15;88.49;99101.75;5065170;28;20028;-60
2023/08/04 05:56:57;;;;;;;9.18;2.78;;;;;;;18.12;88.56;99107.19;5065174;28;20056;-61
2023/08/04 05:59:22;;;;;;;9.70;2.92;;;;;;;18.16;88.55;99103.47;5064992;28;20017;-60
2023/08/04 06:01:52;;;;;;;10.77;2.65;;;;;;;18.13;88.48;99091.34;5065307;28;20029;-60
2023/08/04 06:04:17;;;;;;;15.48;2.42;;;;;;;18.27;88.37;99114.16;5065213;28;20029;-60
2023/08/04 06:06:43;;;;;;;8.00;2.30;;;;;;;18.29;88.15;99114.06;5065053;28;20496;-60
2023/08/04 06:09:08;;;;;;;6.25;2.70;;;;;;;18.32;87.50;99119.97;5064755;28;20017;-60
2023/08/04 06:11:34;;;;;;;4.93;2.50;;;;;;;18.44;87.83;99122.78;5065037;28;20085;-60
2023/08/04 06:13:59;;;;;;;15.57;3.60;;;;;;;18.51;88.06;99126.72;5064791;28;20031;-61
2023/08/04 06:16:24;;;;;;;8.88;3.33;;;;;;;18.59;87.89;99134.13;5068417;28;20021;-60
2023/08/04 06:18:50;;;;;;;10.32;3.08;;;;;;;18.68;87.29;99133.53;5068946;28;20069;-60
2023/08/04 06:21:15;;;;;;;4.90;2.58;;;;;;;18.74;87.25;99139.38;5068714;28;20096;-61
2023/08/04 06:23:45;;;;;;;5.95;2.50;;;;;;;18.73;87.16;99138.50;5068862;28;20025;-60
2023/08/04 06:26:11;;;;;;;6.38;3.22;;;;;;;18.74;85.78;99136.72;5068479;28;20025;-60
2023/08/04 06:28:36;;;;;;;12.57;2.42;;;;;;;18.81;85.43;99143.28;5068534;28;20025;-57
2023/08/04 06:31:02;;;;;;;6.22;2.38;;;;;;;18.92;85.60;99142.59;5068398;28;20056;-59
2023/08/04 06:33:27;;;;;;;15.00;2.60;;;;;;;19.05;85.45;99153.19;5068544;28;20032;-58
2023/08/04 06:35:53;;;;;;;7.60;3.60;;;;;;;19.15;84.54;99158.72;5067960;28;20412;-58
2023/08/04 06:38:18;;;;;;;8.38;2.65;;;;;;;19.24;85.38;99152.88;5067996;28;20052;-58
2023/08/04 06:40:43;;;;;;;5.90;2.53;;;;;;;19.29;83.72;99168.34;5066956;28;20112;-58
2023/08/04 06:43:09;;;;;;;7.30;2.67;;;;;;;19.25;82.40;99172.13;5068578;28;20035;-56
2023/08/04 06:45:34;;;;;;;9.23;2.88;;;;;;;19.12;81.72;99157.13;5068393;28;20025;-57
2023/08/04 06:48:00;;;;;;;8.65;2.65;;;;;;;19.20;81.55;99175.88;5068458;28;20025;-58
2023/08/04 06:50:25;;;;;;;11.38;2.60;;;;;;;19.19;81.47;99171.59;5067162;28;20021;-58
2023/08/04 06:52:50;;;;;;;17.40;2.95;;;;;;;19.20;81.89;99175.06;5068577;28;20099;-58
2023/08/04 06:55:16;;;;;;;16.50;2.78;;;;;;;19.35;82.54;99190.78;5068080;28;20362;-59
2023/08/04 06:57:41;;;;;;;5.22;2.42;;;;;;;19.36;82.25;99190.69;5068194;28;20101;-59
2023/08/04 07:00:09;;;;;;;8.95;3.50;;;;;;;19.40;82.31;99194.81;5068306;28;20032;-58
2023/08/04 07:02:34;;;;;;;6.00;2.70;;;;;;;19.36;81.82;99203.00;5068308;28;20032;-59
2023/08/04 07:05:00;;;;;;;6.43;2.67;;;;;;;19.29;81.17;99203.41;5068278;28;20025;-59
2023/08/04 07:07:25;;;;;;;7.45;2.75;;;;;;;19.23;80.73;99201.16;5067974;28;20020;-59
2023/08/04 07:09:50;;;;;;;10.02;2.65;;;;;;;19.18;80.27;99201.47;5067831;28;20040;-58
2023/08/04 07:12:16;;;;;;;16.70;2.83;;;;;;;19.18;80.11;99206.72;5068177;28;20104;-58
2023/08/04 07:14:41;;;;;;;7.88;2.30;;;;;;;19.24;80.22;99209.88;5067886;28;20028;-57
2023/08/04 07:17:07;;;;;;;6.70;2.33;;;;;;;19.25;79.42;99201.06;5067935;28;20103;-59
2023/08/04 07:19:32;;;;;;;5.55;2.70;;;;;;;19.31;79.25;99208.56;5067933;28;20029;-58
2023/08/04 07:21:58;;;;;;;5.68;2.30;;;;;;;19.52;79.64;99214.22;5067929;28;20538;-57
2023/08/04 07:24:23;;;;;;;9.15;2.35;;;;;;;19.66;79.42;99212.47;5067681;28;20025;-59
2023/08/04 07:26:48;;;;;;;6.55;2.88;;;;;;;19.82;79.47;99221.03;5067289;28;20048;-57
2023/08/04 07:29:14;;;;;;;11.27;3.10;;;;;;;19.94;78.77;99224.66;5067653;28;20131;-56
2023/08/04 07:31:39;;;;;;;4.88;2.80;;;;;;;20.13;79.22;99226.06;5067596;28;20033;-59
2023/08/04 07:34:05;;;;;;;4.82;2.03;;;;;;;20.24;77.99;99229.78;5066263;28;20033;-57
2023/08/04 07:36:30;;;;;;;6.32;2.47;;;;;;;20.25;76.91;99242.84;5067411;28;20025;-58
2023/08/04 07:38:55;;;;;;;13.27;3.33;;;;;;;20.19;76.09;99248.53;5067397;28;20041;-59
2023/08/04 07:41:22;;;;;;;8.15;2.80;;;;;;;20.14;76.28;99248.84;5066034;28;20028;-57
2023/08/04 07:43:48;;;;;;;9.15;2.47;;;;;;;20.09;75.91;99242.19;5067358;28;20029;-60
2023/08/04 07:46:33;;;;;;;6.00;2.75;;;;;;;19.98;74.35;99246.38;5067334;28;20025;-56
2023/08/04 07:48:59;;;;;;;9.13;1.88;;;;;;;19.88;74.11;99247.91;5066998;28;20037;-59
2023/08/04 07:51:24;;;;;;;16.77;2.28;;;;;;;19.80;73.49;99259.81;5067163;28;20023;-58
2023/08/04 07:53:50;;;;;;;4.82;2.42;;;;;;;19.75;73.94;99255.78;5067222;28;20060;-58
2023/08/04 07:56:15;;;;;;;3.92;2.13;;;;;;;19.63;72.74;99255.63;5066937;28;20058;-58
2023/08/04 07:58:41;;;;;;;6.55;2.90;;;;;;;19.63;74.06;99263.53;5067251;28;20025;-60
2023/08/04 08:01:06;;;;;;;4.22;1.88;;;;;;;19.73;74.66;99260.31;5067189;28;20387;-59
2023/08/04 08:03:33;;;;;;;9.60;2.47;;;;;;;19.86;74.35;99268.22;5066957;28;20055;-59
2023/08/04 08:05:59;;;;;;;6.53;2.00;;;;;;;20.00;74.25;99281.34;5066846;28;20025;-59
2023/08/04 08:08:26;;;;;;;7.07;2.28;;;;;;;20.11;73.74;99270.09;5066905;28;20025;-59
2023/08/04 08:10:51;;;;;;;6.32;2.03;;;;;;;20.12;72.21;99270.97;5066778;28;20031;-58
2023/08/04 08:13:16;;;;;;;4.00;1.95;;;;;;;20.19;72.44;99280.16;5066925;28;20049;-56
2023/08/04 08:15:42;;;;;;;3.33;2.03;;;;;;;20.34;73.03;99277.41;5066950;28;20072;-58
2023/08/04 08:18:08;;;;;;;3.80;2.17;;;;;;;20.31;71.12;99276.69;5066669;28;20017;-59
2023/08/04 08:20:33;;;;;;;4.70;1.95;;;;;;;20.21;70.98;99283.53;5066803;28;20025;-60
2023/08/04 08:22:59;;;;;;;4.20;1.58;;;;;;;20.05;71.66;99281.91;5066668;28;20044;-57
2023/08/04 08:25:25;;;;;;;4.72;2.53;;;;;;;19.94;70.80;99287.00;5066414;28;20024;-59
2023/08/04 08:27:50;;;;;;;5.97;2.00;;;;;;;19.88;71.42;99284.78;5066580;28;20527;-59
2023/08/04 08:30:16;;;;;;;4.18;1.90;;;;;;;19.88;71.23;99296.16;5066713;28;20044;-59
2023/08/04 08:32:42;;;;;;;7.57;2.15;;;;;;;19.80;70.68;99291.41;5065441;28;20055;-59
2023/08/04 08:35:07;;;;;;;6.38;2.42;;;;;;;19.82;70.81;99292.13;5066467;28;20029;-59
2023/08/04 08:37:33;;;;;;;7.60;1.88;;;;;;;19.77;70.48;99296.88;5065986;28;20071;-58
2023/08/04 08:39:58;;;;;;;3.75;2.03;;;;;;;19.76;70.56;99304.88;5065569;28;20033;-60
2023/08/04 08:42:23;;;;;;;2.83;1.88;;;;;;;19.71;70.59;99301.69;5066427;28;20052;-58
2023/08/04 08:44:49;;;;;;;4.30;2.10;;;;;;;19.74;71.14;99312.03;5066233;28;20051;-58
2023/08/04 08:47:16;;;;;;;9.38;1.95;;;;;;;19.74;70.98;99318.13;5066582;28;20036;-59
2023/08/04 08:49:46;;;;;;;4.90;1.90;;;;;;;19.81;70.65;99313.31;5066171;28;20025;-57
2023/08/04 08:52:11;;;;;;;2.95;1.70;;;;;;;19.72;69.65;99314.75;5066086;28;20089;-58
2023/08/04 08:54:37;;;;;;;2.88;1.70;;;;;;;19.65;69.75;99314.28;5065957;28;20021;-58
2023/08/04 08:57:05;;;;;;;4.70;2.15;;;;;;;19.62;69.60;99319.75;5066130;28;20025;-58
2023/08/04 08:59:31;;;;;;;5.53;1.92;;;;;;;19.56;69.71;99331.53;5065925;28;20028;-58
2023/08/04 09:01:57;;;;;;;4.88;2.08;;;;;;;19.54;69.57;99330.78;5064620;28;20021;-60
2023/08/04 09:04:22;;;;;;;9.40;2.38;;;;;;;19.53;69.51;99331.72;5066000;28;20081;-59
2023/08/04 09:06:48;;;;;;;8.95;1.92;;;;;;;19.61;69.33;99339.13;5065695;28;20028;-59
2023/08/04 09:09:14;;;;;;;9.57;2.58;;;;;;;19.66;68.51;99328.31;5065669;28;20048;-58
2023/08/04 09:11:39;;;;;;;4.07;2.20;;;;;;;19.76;68.74;99342.56;5065867;28;20527;-57
2023/08/04 09:14:06;;;;;;;4.72;1.77;;;;;;;19.80;68.87;99341.44;5065745;28;20053;-61
2023/08/04 09:16:33;;;;;;;3.72;1.83;;;;;;;19.84;68.00;99349.97;5065604;28;20029;-58
2023/08/04 09:19:04;;;;;;;7.47;2.33;;;;;;;19.78;67.77;99347.72;5065658;28;20084;-59
2023/08/04 09:21:30;;;;;;;5.50;1.85;;;;;;;19.85;67.59;99342.91;5065602;28;20036;-59
2023/08/04 09:23:55;;;;;;;9.32;2.95;;;;;;;19.87;67.99;99349.78;5065607;28;20029;-59
2023/08/04 09:26:21;;;;;;;5.45;2.00;;;;;;;19.84;67.97;99357.03;5065458;28;20025;-58
2023/08/04 09:29:03;;;;;;;7.38;2.22;;;;;;;19.96;68.48;99358.88;5065589;28;20045;-59
2023/08/04 09:31:35;;;;;;;4.00;1.75;;;;;;;20.09;67.13;99364.22;5065460;28;20021;-59
2023/08/04 09:34:04;;;;;;;5.28;1.63;;;;;;;20.16;65.91;99362.88;5065632;28;20104;-59
2023/08/04 09:36:29;;;;;;;5.70;1.75;;;;;;;20.35;67.09;99366.91;5065541;28;20089;-58
2023/08/04 09:39:03;;;;;;;6.28;1.95;;;;;;;20.53;65.93;99369.28;5065253;28;20037;-59
2023/08/04 09:41:32;;;;;;;12.82;2.83;;;;;;;20.54;64.90;99365.72;5065110;28;20028;-58
2023/08/04 09:43:57;;;;;;;3.47;1.88;;;;;;;20.55;65.17;99368.25;5065503;28;20025;-59
2023/08/04 09:46:23;;;;;;;11.60;2.17;;;;;;;20.67;65.73;99371.00;5065461;28;20432;-59
2023/08/04 09:48:48;;;;;;;9.85;2.20;;;;;;;20.81;65.12;99370.88;5065388;28;20023;-59
2023/08/04 09:51:15;;;;;;;6.93;2.70;;;;;;;21.75;65.13;99375.03;5065210;28;20084;-59
2023/08/04 09:53:43;;;;;;;3.13;1.70;;;;;;;22.26;63.58;99373.16;5065230;28;20017;-58
2023/08/04 09:56:10;;;;;;;5.63;1.30;;;;;;;22.44;62.21;99385.13;5065190;28;20033;-59
2023/08/04 09:58:36;;;;;;;5.28;1.67;;;;;;;22.66;60.88;99389.66;5065157;28;20017;-59
2023/08/04 10:01:02;;;;;;;7.00;2.00;;;;;;;23.27;58.28;99379.75;5065118;28;20108;-56
2023/08/04 10:03:28;;;;;;;7.95;2.00;;;;;;;23.44;57.56;99383.75;5065419;28;20040;-59
2023/08/04 10:05:55;;;;;;;2.05;1.40;;;;;;;24.18;57.37;99384.09;5065070;28;20572;-59
2023/08/04 10:08:20;;;;;;;1.98;1.27;;;;;;;24.20;54.54;99379.47;5065202;28;20024;-59
2023/08/04 10:10:46;;;;;;;3.25;1.38;;;;;;;23.73;53.66;99391.16;5064893;28;20025;-59
2023/08/04 10:13:12;;;;;;;2.95;1.20;;;;;;;23.10;55.04;99403.06;5065092;28;20017;-58
2023/08/04 10:15:38;;;;;;;2.65;1.70;;;;;;;22.53;55.90;99406.44;5065056;28;20051;-59
2023/08/04 10:18:04;;;;;;;3.80;1.25;;;;;;;22.20;56.81;99405.34;5065161;28;20055;-59
2023/08/04 10:20:33;;;;;;;4.60;1.90;;;;;;;21.94;56.92;99416.00;5065137;28;20084;-59
2023/08/04 10:22:58;;;;;;;4.97;1.30;;;;;;;21.74;58.22;99417.41;5064987;28;20021;-58
2023/08/04 10:25:24;;;;;;;2.65;1.48;;;;;;;21.71;59.18;99415.00;5064716;28;20096;-58
2023/08/04 10:27:50;;;;;;;3.95;1.60;;;;;;;22.02;58.12;99418.09;5064886;28;20055;-58
2023/08/04 10:30:16;;;;;;;2.83;1.38;;;;;;;21.86;58.05;99419.19;5064997;28;20049;-57
2023/08/04 10:32:42;;;;;;;2.20;1.33;;;;;;;21.79;58.67;99416.16;5064849;28;20026;-59
2023/08/04 10:35:19;;;;;;;2.92;1.58;;;;;;;22.10;58.33;99418.38;5064824;28;20036;-58
2023/08/04 10:37:55;;;;;;;2.38;1.40;;;;;;;22.62;57.92;99435.81;5064385;28;20048;-59
2023/08/04 10:40:28;;;;;;;5.80;1.58;;;;;;;22.65;55.73;99431.13;5064521;28;20025;-59
2023/08/04 10:42:58;;;;;;;8.65;2.00;;;;;;;22.51;55.43;99434.78;5064990;28;20025;-60
2023/08/04 10:45:23;;;;;;;9.02;1.25;;;;;;;22.36;55.62;99422.69;5064741;28;20466;-60
2023/08/04 10:47:53;;;;;;;2.50;1.25;;;;;;;22.23;56.10;99426.25;5064778;28;20028;-60
2023/08/04 10:50:19;;;;;;;3.05;1.55;;;;;;;22.25;56.41;99436.72;5064775;28;20024;-59
2023/08/04 10:52:45;;;;;;;4.65;1.42;;;;;;;22.08;56.05;99435.31;5064845;28;20036;-59
2023/08/04 10:55:13;;;;;;;4.65;1.73;;;;;;;21.86;56.99;99428.91;5064619;28;20029;-59
2023/08/04 10:57:40;;;;;;;1.92;1.23;;;;;;;22.28;57.21;99431.22;5064394;28;20029;-60
2023/08/04 11:00:08;;;;;;;6.32;1.67;;;;;;;23.48;55.25;99435.50;5064606;28;20029;-60
2023/08/04 11:02:35;;;;;;;3.35;1.75;;;;;;;24.00;53.97;99428.81;5066364;28;20024;-60
2023/08/04 11:05:03;;;;;;;5.15;1.55;;;;;;;24.14;52.97;99438.28;5068245;28;20389;-59
2023/08/04 11:07:28;;;;;;;1.98;1.38;;;;;;;24.27;51.23;99432.84;5068192;28;20048;-61
2023/08/04 11:09:54;;;;;;;2.50;0.73;;;;;;;24.13;51.65;99439.25;5067533;28;20051;-60
2023/08/04 11:12:20;;;;;;;5.93;1.58;;;;;;;23.88;52.50;99433.31;5067814;28;20024;-60
2023/08/04 11:14:46;;;;;;;5.35;1.10;;;;;;;23.54;51.64;99446.56;5067594;28;20028;-60
2023/08/04 11:17:16;;;;;;;11.52;1.58;;;;;;;23.22;52.15;99446.31;5067597;28;20032;-60
2023/08/04 11:19:43;;;;;;;3.78;1.67;;;;;;;23.12;52.33;99447.97;5067694;28;20017;-59
2023/08/04 11:22:13;;;;;;;5.70;1.48;;;;;;;22.78;52.79;99436.34;5067425;28;20028;-59
2023/08/04 11:24:39;;;;;;;5.13;1.42;;;;;;;22.71;53.57;99440.41;5067421;28;20059;-59
2023/08/04 11:27:05;;;;;;;2.92;1.58;;;;;;;22.60;53.26;99440.38;5066138;28;20025;-60